Flight Track Log - Related Links

Times and Time Zones

All times are in EDT time to prevent confusion due to time zone crossing. See the UAL1040 flight status page for this flight to view local times or setup timezone preferences in your user account.


Time Position Orientation Groundspeed Altitude Reporting Facility
EDT Latitude Longitude Course Direction KTS MPH feet Rate Location/Type
Tue 09:35:15 AM 40.6634 -74.1799 201° Southwest  Level FlightAware Approximate
Tue 09:36:15 AM 40.5496 -74.2504 42° Northeast  Level FlightAware Approximate
Tue 09:37:15 AM 40.4370 -74.2109 354° North  Level FlightAware Approximate
Tue 09:38:05 AM 40.5672 -74.2297 195° South 236 272 4,600  Level New York Center
Tue 09:39:06 AM 40.5061 -74.2511 176° South 262 302 6,000 706 Climbing New York Center
Tue 09:40:04 AM 40.4333 -74.2447 179° South 262 302 6,000  Level New York Center
Tue 09:41:05 AM 40.3583 -74.2436 183° South 267 307 6,000 885 Level New York Center
Tue 09:42:06 AM 40.2833 -74.2481 181° South 272 313 7,800 2,380 Climbing New York Center
Tue 09:43:06 AM 40.2061 -74.2497 181° South 277 319 10,800 2,065 Climbing New York Center
Tue 09:45:12 AM 40.0247 -74.2531 208° Southwest 317 365 14,200 1,765 Climbing Washington Center
Tue 09:46:13 AM 39.9461 -74.3086 216° Southwest 325 374 16,300 2,118 Climbing Washington Center
Tue 09:47:11 AM 39.8658 -74.3858 220° Southwest 331 381 18,400 1,881 Climbing Washington Center
Tue 09:48:11 AM 39.7875 -74.4708 226° Southwest 359 413 20,000 1,600 Climbing Washington Center
Tue 09:49:11 AM 39.7133 -74.5692 226° Southwest 372 428 21,600 1,587 Climbing Washington Center
Tue 09:50:12 AM 39.6289 -74.6836 225° Southwest 389 448 23,200 1,438 Climbing Washington Center
Tue 09:51:12 AM 39.5483 -74.7894 225° Southwest 409 471 24,500 1,339 Climbing Washington Center
Tue 09:52:13 AM 39.4636 -74.8981 227° Southwest 414 476 25,900 1,438 Climbing Washington Center
Tue 09:53:13 AM 39.3808 -75.0117 227° Southwest 426 490 27,400 1,744 Climbing Washington Center
Tue 09:54:10 AM 39.3022 -75.1222 226° Southwest 426 490 29,300 1,780 Climbing Washington Center
Tue 09:55:11 AM 39.2192 -75.2325 221° Southwest 426 490 30,900 1,377 Climbing Washington Center
Tue 09:56:12 AM 39.1339 -75.3267 196° South 420 483 32,100 1,140 Climbing Washington Center
Tue 09:57:12 AM 39.0214 -75.3672 207° Southwest 413 475 33,200 942 Climbing Washington Center
Tue 09:58:13 AM 38.9172 -75.4342 204° Southwest 413 475 34,000 347 Climbing Washington Center
Tue 09:59:13 AM 38.8069 -75.4958 185° South 418 481 33,900 -51 Descending Washington Center
Tue 10:00:11 AM 38.6861 -75.5092 180° South 426 490 33,900  Level Washington Center
Tue 10:01:11 AM 38.5608 -75.5094 180° South 436 502 33,900  Level Washington Center
Tue 10:02:11 AM 38.4419 -75.5094 187° South 441 507 33,900 50 Level Washington Center
Tue 10:03:12 AM 38.3192 -75.5281 205° Southwest 441 507 34,000 50 Climbing Washington Center
Tue 10:04:10 AM 38.2211 -75.5864 206° Southwest 430 495 34,000  Level Washington Center
Tue 10:05:11 AM 38.1147 -75.6525 207° Southwest 430 495 34,000  Level Washington Center
Tue 10:06:12 AM 38.0083 -75.7208 205° Southwest 430 495 34,000  Level Washington Center
Tue 10:07:12 AM 37.8997 -75.7864 206° Southwest 430 495 34,000  Level Washington Center
Tue 10:08:11 AM 37.7786 -75.8597 207° Southwest 430 495 34,000  Level Washington Center
Tue 10:09:11 AM 37.6722 -75.9275 206° Southwest 437 503 34,000  Level Washington Center
Tue 10:10:12 AM 37.5656 -75.9928 206° Southwest 437 503 34,000  Level Washington Center
Tue 10:11:11 AM 37.4547 -76.0600 207° Southwest 437 503 34,000  Level Washington Center
Tue 10:12:11 AM 37.3461 -76.1300 205° Southwest 437 503 34,000  Level Washington Center
Tue 10:13:12 AM 37.2353 -76.1944 206° Southwest 437 503 34,000  Level Washington Center
Tue 10:14:13 AM 37.1389 -76.2536 206° Southwest 437 503 34,000  Level Washington Center
Tue 10:15:13 AM 37.0300 -76.3203 205° Southwest 437 503 34,000  Level Washington Center
Tue 10:16:13 AM 36.9169 -76.3869 206° Southwest 442 509 34,000  Level Washington Center
Tue 10:17:11 AM 36.8081 -76.4531 203° Southwest 447 514 34,000  Level Washington Center
Tue 10:18:11 AM 36.6928 -76.5142 200° South 447 514 34,000  Level Washington Center
Tue 10:19:12 AM 36.5778 -76.5669 201° Southwest 442 509 34,000  Level Washington Center
Tue 10:20:13 AM 36.4647 -76.6200 199° South 442 509 34,000  Level Washington Center
Tue 10:21:13 AM 36.3453 -76.6700 200° South 442 509 34,000  Level Washington Center
Tue 10:22:11 AM 36.2300 -76.7225 200° South 447 514 34,000  Level Washington Center
Tue 10:23:11 AM 36.0981 -76.7822 200° South 452 520 34,000  Level Washington Center
Tue 10:24:12 AM 35.9847 -76.8344 200° South 447 514 34,000  Level Washington Center
Tue 10:25:10 AM 35.8717 -76.8864 200° South 442 509 34,000  Level Washington Center
Tue 10:26:11 AM 35.7561 -76.9383 199° South 442 509 34,000  Level Washington Center
Tue 10:27:12 AM 35.6494 -76.9825 193° South 451 519 34,000  Level Washington Center
Tue 10:28:12 AM 35.5258 -77.0186 191° South 445 512 34,000  Level Washington Center
Tue 10:29:13 AM 35.4003 -77.0497 192° South 457 526 34,000  Level Washington Center
Tue 10:30:13 AM 35.2808 -77.0806 193° South 451 519 34,000  Level Washington Center
Tue 10:31:11 AM 35.1594 -77.1139 192° South 451 519 34,000  Level Washington Center
Tue 10:32:12 AM 35.0275 -77.1469 192° South 451 519 34,000  Level Washington Center
Tue 10:33:12 AM 34.9042 -77.1800 194° South 451 519 34,000  Level Washington Center
Tue 10:34:12 AM 34.7847 -77.2156 192° South 444 511 34,000  Level Washington Center
Tue 10:35:13 AM 34.6633 -77.2461 192° South 449 517 34,000  Level Washington Center
Tue 10:36:13 AM 34.5439 -77.2764 192° South 449 517 34,000  Level Washington Center
Tue 10:37:11 AM 34.4203 -77.3092 192° South 449 517 34,000  Level Washington Center
Tue 10:39:10 AM 34.1767 -77.3708 192° South 447 514 34,000  Level Jacksonville Center
Tue 10:40:10 AM 34.0672 -77.3978 192° South 447 514 34,000  Level Jacksonville Center
Tue 10:41:10 AM 33.9436 -77.4306 191° South 447 514 34,000  Level Jacksonville Center
Tue 10:42:10 AM 33.8217 -77.4583 192° South 447 514 34,000  Level Jacksonville Center
Tue 10:43:10 AM 33.6978 -77.4908 193° South 447 514 34,000  Level Jacksonville Center
Tue 10:44:10 AM 33.5761 -77.5233 192° South 447 514 34,000  Level Jacksonville Center
Tue 10:45:10 AM 33.4544 -77.5556 192° South 447 514 34,000  Level Jacksonville Center
Tue 10:46:10 AM 33.3306 -77.5878 191° South 447 514 34,000  Level Jacksonville Center
Tue 10:47:10 AM 33.2086 -77.6172 192° South 447 514 34,000  Level Jacksonville Center
Tue 10:48:10 AM 33.0889 -77.6467 192° South 447 514 34,000  Level Jacksonville Center
Tue 10:49:10 AM 32.9650 -77.6786 179° South 447 514 34,000  Level Jacksonville Center
Tue 10:50:10 AM 32.8417 -77.6761 159° South 447 514 34,000  Level Jacksonville Center
Tue 10:51:10 AM 32.7183 -77.6189 157° South 447 514 34,000  Level Jacksonville Center
Tue 10:52:10 AM 32.5967 -77.5569 158° South 463 533 34,000 -150 Level Jacksonville Center
Tue 10:53:10 AM 32.4753 -77.4978 158° South 473 544 33,700 -403 Descending Jacksonville Center
Tue 10:54:09 AM 32.3539 -77.4386 159° South 478 550 33,200 -353 Descending Jacksonville Center
Tue 10:55:09 AM 32.2344 -77.3842 161° South 478 550 33,000 -99 Descending Jacksonville Center
Tue 10:56:10 AM 32.1156 -77.3350 160° South 468 539 33,000  Level Jacksonville Center
Tue 10:57:09 AM 31.9922 -77.2811 161° South 468 539 33,000  Level Jacksonville Center
Tue 10:58:09 AM 31.8689 -77.2325 158° South 468 539 33,000  Level Jacksonville Center
Tue 10:59:09 AM 31.7453 -77.1742 160° South 474 545 33,000  Level Jacksonville Center
Tue 11:00:09 AM 31.6239 -77.1231 159° South 474 545 33,000  Level Jacksonville Center
Tue 11:01:09 AM 31.5025 -77.0672 161° South 474 545 33,000  Level Jacksonville Center
Tue 11:02:09 AM 31.3833 -77.0189 154° Southeast 469 540 33,000  Level Jacksonville Center
Tue 11:04:34 AM 31.3500 -77.0000 140° Southeast 494 568 33,000  Level New York Oceanic (ODAPS)
Tue 11:36:37 AM 28.2500 -74.1167 152° Southeast 450 518 33,000 Level New York Oceanic (ODAPS)
Tue 12:05:40 PM 24.5350 -71.9303 162° South 468 539 33,100 47 Climbing Miami Center
Tue 12:06:40 PM 24.4208 -71.8892 170° South 448 516 34,400 900 Climbing Miami Center
Tue 12:07:40 PM 24.2969 -71.8647 165° South 448 516 34,900 300 Climbing Miami Center
Tue 12:08:40 PM 24.1767 -71.8283 167° South 448 516 35,000 50 Climbing Miami Center
Tue 12:09:40 PM 24.0567 -71.7969 165° South 448 516 35,000  Level Miami Center
Tue 12:10:40 PM 23.9322 -71.7611 168° South 453 521 35,000  Level Miami Center
Tue 12:11:40 PM 23.8100 -71.7319 164° South 453 521 35,000  Level Miami Center
Tue 12:12:40 PM 23.6897 -71.6939 166° South 453 521 35,000  Level Miami Center
Tue 12:13:40 PM 23.5694 -71.6603 164° South 453 521 35,000  Level Miami Center
Tue 12:14:40 PM 23.4514 -71.6242 166° South 453 521 35,000  Level Miami Center
Tue 12:15:40 PM 23.3356 -71.5928 168° South 447 514 35,000  Level Miami Center
Tue 12:16:40 PM 23.2178 -71.5661 163° South 435 501 35,000  Level Miami Center
Tue 12:17:40 PM 23.1014 -71.5281 166° South 435 501 35,000  Level Miami Center
Tue 12:18:40 PM 22.9836 -71.4967 165° South 435 501 35,000  Level Miami Center
Tue 12:19:40 PM 22.8633 -71.4611 168° South 435 501 35,000  Level Miami Center
Tue 12:20:40 PM 22.7433 -71.4325 164° South 440 506 35,000  Level Miami Center
Tue 12:21:40 PM 22.6231 -71.3947 166° South 435 501 35,000  Level Miami Center
Tue 12:22:40 PM 22.5069 -71.3636 166° South 440 506 35,000  Level Miami Center
Tue 12:23:40 PM 22.3869 -71.3306 165° South 440 506 35,000  Level Miami Center
Tue 12:24:40 PM 22.2689 -71.2975 166° South 440 506 35,000  Level Miami Center
Tue 12:25:40 PM 22.1508 -71.2667 166° South 440 506 35,000  Level Miami Center
Tue 12:26:40 PM 22.0308 -71.2336 166° South 440 506 35,000  Level Miami Center
Tue 12:27:40 PM 21.9128 -71.2028 165° South 440 506 35,000  Level Miami Center
Tue 12:28:40 PM 21.8094 -71.1739 166° South 435 501 35,000  Level Miami Center
Tue 12:29:40 PM 21.6894 -71.1408 164° South 435 501 35,000  Level Miami Center
Tue 12:30:40 PM 21.5733 -71.1058 167° South 435 501 35,000  Level Miami Center
Tue 12:31:40 PM 21.4386 -71.0736 164° South 435 501 35,000  Level Miami Center
Tue 12:32:40 PM 21.3519 -71.0464 166° South 435 501 35,000  Level Miami Center
Tue 12:33:40 PM 21.2089 -71.0081 166° South 450 518 35,000  Level Miami Center
Tue 12:34:40 PM 21.0908 -70.9775 166° South 445 512 35,000  Level Miami Center
Tue 12:35:40 PM 20.9603 -70.9431 166° South 445 512 35,000  Level Miami Center
Tue 12:36:40 PM 20.8422 -70.9106 166° South 440 506 35,000  Level Miami Center
Tue 12:37:40 PM 20.7222 -70.8781 166° South 440 506 35,000  Level Miami Center
Tue 12:38:40 PM 20.6022 -70.8458 165° South 440 506 35,000  Level Miami Center
Tue 12:39:40 PM 20.4819 -70.8111 169° South 440 506 35,000  Level Miami Center
Tue 12:40:40 PM 20.3581 -70.7856 170° South 440 506 35,000  Level Miami Center
Tue 12:41:40 PM 20.2364 -70.7622 160° South 440 506 35,000  Level Miami Center
Tue 12:49:15 PM 19.7251 -70.5633 175° South  Level FlightAware Approximate
Tue 12:50:15 PM 19.6065 -70.5520 175° South  Level FlightAware Approximate
Tue 12:51:15 PM 19.4878 -70.5407 175° South  Level FlightAware Approximate
Tue 12:52:15 PM 19.3691 -70.5294 175° South  Level FlightAware Approximate
Tue 12:53:15 PM 19.2505 -70.5182 175° South  Level FlightAware Approximate
Tue 12:54:15 PM 19.1318 -70.5069 175° South  Level FlightAware Approximate
Tue 12:55:15 PM 19.0131 -70.4957 175° South  Level FlightAware Approximate
Tue 12:56:15 PM 18.8945 -70.4845 175° South  Level FlightAware Approximate
Tue 12:57:15 PM 18.7758 -70.4733 175° South  Level FlightAware Approximate
Tue 12:58:15 PM 18.6571 -70.4622 175° South  Level FlightAware Approximate
Tue 12:59:15 PM 18.5385 -70.4510 175° South  Level FlightAware Approximate
Tue 01:00:15 PM 18.4198 -70.4399 175° South  Level FlightAware Approximate
Tue 01:01:15 PM 18.3011 -70.4287 175° South  Level FlightAware Approximate
Tue 01:02:15 PM 18.1824 -70.4176 175° South  Level FlightAware Approximate
Tue 01:03:15 PM 18.0638 -70.4065 175° South  Level FlightAware Approximate
Tue 01:04:15 PM 17.9451 -70.3954 175° South  Level FlightAware Approximate
Tue 01:05:15 PM 17.8264 -70.3844 175° South  Level FlightAware Approximate
Tue 01:06:15 PM 17.7078 -70.3733 175° South  Level FlightAware Approximate
Tue 01:07:15 PM 17.5891 -70.3623 175° South  Level FlightAware Approximate
Tue 01:08:15 PM 17.4704 -70.3513 175° South  Level FlightAware Approximate
Tue 01:09:15 PM 17.3517 -70.3403 175° South  Level FlightAware Approximate
Tue 01:10:15 PM 17.2331 -70.3293 175° South  Level FlightAware Approximate
Tue 01:11:15 PM 17.1144 -70.3183 175° South  Level FlightAware Approximate
Tue 01:12:15 PM 16.9957 -70.3073 175° South  Level FlightAware Approximate
Tue 01:13:15 PM 16.8770 -70.2964 175° South  Level FlightAware Approximate
Tue 01:14:15 PM 16.7584 -70.2854 175° South  Level FlightAware Approximate
Tue 01:15:15 PM 16.6397 -70.2745 175° South  Level FlightAware Approximate
Tue 01:16:15 PM 16.5210 -70.2636 175° South  Level FlightAware Approximate
Tue 01:17:15 PM 16.4023 -70.2527 175° South  Level FlightAware Approximate
Tue 01:18:15 PM 16.2836 -70.2418 175° South  Level FlightAware Approximate
Tue 01:19:15 PM 16.1649 -70.2310 175° South  Level FlightAware Approximate
Tue 01:20:15 PM 16.0463 -70.2201 175° South  Level FlightAware Approximate
Tue 01:21:15 PM 15.9275 -70.2103 175° South  Level FlightAware Approximate
Tue 01:22:15 PM 15.8087 -70.2006 175° South  Level FlightAware Approximate
Tue 01:23:15 PM 15.6900 -70.1909 175° South  Level FlightAware Approximate
Tue 01:24:15 PM 15.5712 -70.1811 175° South  Level FlightAware Approximate
Tue 01:25:15 PM 15.4524 -70.1714 175° South  Level FlightAware Approximate
Tue 01:26:15 PM 15.3336 -70.1617 175° South  Level FlightAware Approximate
Tue 01:27:15 PM 15.2149 -70.1520 175° South  Level FlightAware Approximate
Tue 01:28:15 PM 15.0961 -70.1423 176° South  Level FlightAware Approximate
Tue 01:29:15 PM 14.9773 -70.1327 176° South  Level FlightAware Approximate
Tue 01:30:15 PM 14.8586 -70.1230 176° South  Level FlightAware Approximate
Tue 01:31:15 PM 14.7398 -70.1134 176° South  Level FlightAware Approximate
Tue 01:32:15 PM 14.6210 -70.1037 176° South  Level FlightAware Approximate
Tue 01:33:15 PM 14.5023 -70.0941 176° South  Level FlightAware Approximate
Tue 01:34:15 PM 14.3835 -70.0845 176° South  Level FlightAware Approximate
Tue 01:35:15 PM 14.2647 -70.0749 176° South  Level FlightAware Approximate
Tue 01:36:15 PM 14.1459 -70.0653 176° South  Level FlightAware Approximate
Tue 01:37:15 PM 14.0272 -70.0557 176° South  Level FlightAware Approximate
Tue 01:38:15 PM 13.9084 -70.0461 176° South  Level FlightAware Approximate
Tue 01:39:15 PM 13.7896 -70.0366 176° South  Level FlightAware Approximate
Tue 01:40:15 PM 13.6708 -70.0270 176° South  Level FlightAware Approximate
Tue 01:41:15 PM 13.5520 -70.0175 176° South  Level FlightAware Approximate
Tue 01:42:15 PM 13.4333 -70.0079 176° South  Level FlightAware Approximate
Tue 01:43:15 PM 13.3145 -69.9984 164° South  Level FlightAware Approximate
Tue 01:44:15 PM 13.2002 -69.9650 177° South  Level FlightAware Approximate
Tue 01:45:15 PM 13.0812 -69.9596 177° South  Level FlightAware Approximate

Login

Don't have an account? Register now (free) for customized features, flight alerts, and more!